DAUB

Biskra Airport

Biskra, Algeria
METAR DAUB 222100Z 09003KT CAVOK 26/09 Q1016
Observed Flight Rules
Apr-22 @ 21:00 UTC (52 minutes ago) Visual Flight Rules
Wind Visibility Clouds
90° at 3 knots 10,000+ meters
  • Clear skies
Temperatures Readings
Current 26°C / 79°F
Dewpoint 9°C / 48°F
Humidity 34%
Altimeter 30" Hg
Pressure 1016 hPa
Elevation 87
METAR DAUB 222100Z 09003KT CAVOK 26/09 Q1016
Observed Flight Rules
Apr-22 @ 21:00 UTC
(52 minutes ago)
VFR
Wind Visibility
90° at 3 knots 10,000+ meters
Clouds
  • Clear skies
Temperature Dewpoint
26°C / 79°F 9°C / 48°F
Humidity Altimeter Pressure
34% 30" Hg 1016 hPa